Weather forecast for Bezmiechowa

Poland, 496 m
N49.521, E22.410


Sounding

Red line — air temperature ˚C.
Blue line — thermal bubble temperature ˚C.
Green line — dew point temperature ˚C.
Wind speed is in meters per second.

Table forecast

GFS 0.25˚ model

temp. wind gust humid. clouds prec. press. hpbl
Sat21 00:00 15 261.0 w 1 2 95 0 0.0 1013 23
03:00 14 259.0 w 1 2 96 0 0.0 1013 23
06:00 14 247.0 wsw 1 1 97 0 0.0 1013 23
09:00 19 292.0 wnw 2 3 79 0 0.0 1013 381
12:00 23 309.0 nw 3 4 55 0 0.0 1013 1125
15:00 24 322.0 nw 3 4 46 0 0.0 1012 1430
18:00 23 326.0 nw 3 4 54 0 0.0 1012 1176
21:00 18 317.0 nw 1 1 84 0 0.0 1012 23
 
Sun22 00:00 15 191.0 s 1 2 88 0 0.0 1013 23
03:00 14 191.0 s 1 2 87 0 0.0 1012 23
06:00 13 186.0 s 1 2 86 0 0.0 1012 23
09:00 21 80.0 e 1 1 64 0 0.0 1012 223
12:00 25 31.0 nne 2 2 49 0 0.0 1011 1219
15:00 26 10.0 n 2 2 45 1 0.0 1010 1647
18:00 25 1.0 n 2 2 50 1 0.0 1009 1807
21:00 19 72.0 ene 2 2 85 9 0.1 1010 45
 
Mon23 00:00 16 162.0 sse 1 2 95 0 0.0 1010 23
03:00 15 187.0 s 1 1 94 0 0.0 1010 23
06:00 14 273.0 w 1 1 95 0 0.0 1010 23
09:00 19 338.0 nnw 2 4 79 0 0.0 1010 303
12:00 23 359.0 n 4 5 62 48 0.1 1009 1148
15:00 24 1.0 n 4 5 58 47 0.4 1008 1365
18:00 23 348.0 nnw 4 6 66 40 0.2 1008 1174
21:00 18 358.0 n 2 8 87 60 0.4 1009 235
 
Tue24 00:00 16 331.0 nnw 2 9 97 92 0.0 1010 233
03:00 15 337.0 nnw 3 12 98 68 0.0 1010 419
06:00 14 333.0 nnw 3 11 99 5 0.0 1010 437
09:00 17 343.0 nnw 4 10 88 39 0.0 1011 605
12:00 19 352.0 n 4 8 71 75 0.0 1011 993
15:00 23 354.0 n 4 7 58 81 0.0 1010 1301
18:00 23 351.0 n 5 8 58 34 0.0 1010 1515
21:00 19 360.0 n 3 10 80 19 0.0 1011 429
 
Wed25 00:00 16 341.0 nnw 2 5 91 1 0.0 1011 137
03:00 15 322.0 nw 2 6 98 0 0.0 1011 174
06:00 15 334.0 nnw 2 7 99 17 0.1 1012 280
09:00 17 344.0 nnw 3 6 97 59 0.4 1012 333
12:00 19 345.0 nnw 3 6 91 100 0.4 1012 589
15:00 22 344.0 nnw 4 7 85 100 2.6 1011 913
18:00 22 353.0 n 4 7 77 19 0.6 1010 990
21:00 19 358.0 n 2 6 93 38 0.9 1011 212
 

0.013 s